sensor_id;sensor_type;location;lat;lon;timestamp;P1;durP1;ratioP1;P2;durP2;ratioP2
2107;SDS011;1060;52.492;13.388;2023-07-29T00:05:59;15.80;;;14.40;;
2107;SDS011;1060;52.492;13.388;2023-07-29T00:12:15;23.77;;;21.53;;
2107;SDS011;1060;52.492;13.388;2023-07-29T00:22:58;13.87;;;12.50;;
2107;SDS011;1060;52.492;13.388;2023-07-29T01:29:11;12.97;;;11.77;;
2107;SDS011;1060;52.492;13.388;2023-07-29T01:32:23;14.63;;;13.27;;
2107;SDS011;1060;52.492;13.388;2023-07-29T01:55:52;30.77;;;28.07;;
2107;SDS011;1060;52.492;13.388;2023-07-29T01:58:57;19.63;;;17.93;;
2107;SDS011;1060;52.492;13.388;2023-07-29T02:08:48;15.90;;;14.63;;
2107;SDS011;1060;52.492;13.388;2023-07-29T02:11:24;15.30;;;14.00;;
2107;SDS011;1060;52.492;13.388;2023-07-29T02:18:11;14.67;;;13.30;;
2107;SDS011;1060;52.492;13.388;2023-07-29T02:28:34;20.47;;;18.47;;
2107;SDS011;1060;52.492;13.388;2023-07-29T02:48:24;14.63;;;13.43;;
2107;SDS011;1060;52.492;13.388;2023-07-29T02:51:05;13.13;;;12.07;;
2107;SDS011;1060;52.492;13.388;2023-07-29T02:53:38;11.30;;;10.40;;
2107;SDS011;1060;52.492;13.388;2023-07-29T02:56:15;12.73;;;10.50;;
2107;SDS011;1060;52.492;13.388;2023-07-29T02:59:04;15.37;;;14.07;;
2107;SDS011;1060;52.492;13.388;2023-07-29T03:01:53;13.70;;;12.40;;
2107;SDS011;1060;52.492;13.388;2023-07-29T03:04:49;12.47;;;11.37;;
2107;SDS011;1060;52.492;13.388;2023-07-29T03:10:07;14.10;;;12.93;;
2107;SDS011;1060;52.492;13.388;2023-07-29T03:12:41;13.70;;;12.60;;
2107;SDS011;1060;52.492;13.388;2023-07-29T03:15:39;14.50;;;13.20;;
2107;SDS011;1060;52.492;13.388;2023-07-29T03:18:28;19.27;;;16.67;;
2107;SDS011;1060;52.492;13.388;2023-07-29T03:21:00;13.23;;;11.90;;
2107;SDS011;1060;52.492;13.388;2023-07-29T03:23:50;20.93;;;19.07;;
2107;SDS011;1060;52.492;13.388;2023-07-29T03:29:10;14.47;;;13.27;;
2107;SDS011;1060;52.492;13.388;2023-07-29T03:31:51;14.33;;;12.93;;
2107;SDS011;1060;52.492;13.388;2023-07-29T03:34:46;14.10;;;12.83;;
2107;SDS011;1060;52.492;13.388;2023-07-29T03:37:47;14.97;;;13.60;;
2107;SDS011;1060;52.492;13.388;2023-07-29T03:41:01;13.13;;;12.07;;
2107;SDS011;1060;52.492;13.388;2023-07-29T03:43:46;14.03;;;12.93;;
2107;SDS011;1060;52.492;13.388;2023-07-29T03:47:00;13.37;;;11.50;;
2107;SDS011;1060;52.492;13.388;2023-07-29T03:49:59;11.53;;;10.60;;
2107;SDS011;1060;52.492;13.388;2023-07-29T03:53:04;12.23;;;11.23;;
2107;SDS011;1060;52.492;13.388;2023-07-29T03:55:45;15.10;;;11.33;;
2107;SDS011;1060;52.492;13.388;2023-07-29T03:58:19;12.37;;;10.23;;
2107;SDS011;1060;52.492;13.388;2023-07-29T04:00:57;13.27;;;12.07;;
2107;SDS011;1060;52.492;13.388;2023-07-29T04:03:26;11.20;;;10.40;;
2107;SDS011;1060;52.492;13.388;2023-07-29T04:05:59;12.47;;;11.47;;
2107;SDS011;1060;52.492;13.388;2023-07-29T04:09:23;11.23;;;10.33;;
2107;SDS011;1060;52.492;13.388;2023-07-29T04:14:35;11.83;;;10.67;;
2107;SDS011;1060;52.492;13.388;2023-07-29T04:17:21;10.70;;;9.80;;
2107;SDS011;1060;52.492;13.388;2023-07-29T04:20:38;10.50;;;9.60;;
2107;SDS011;1060;52.492;13.388;2023-07-29T04:22:46;10.30;;;9.50;;
2107;SDS011;1060;52.492;13.388;2023-07-29T04:34:05;7.43;;;6.87;;
2107;SDS011;1060;52.492;13.388;2023-07-29T04:40:23;6.93;;;6.43;;
2107;SDS011;1060;52.492;13.388;2023-07-29T04:46:20;7.23;;;6.73;;
2107;SDS011;1060;52.492;13.388;2023-07-29T04:49:05;6.90;;;6.43;;
2107;SDS011;1060;52.492;13.388;2023-07-29T04:52:00;6.60;;;6.20;;
2107;SDS011;1060;52.492;13.388;2023-07-29T04:54:59;7.57;;;6.97;;
2107;SDS011;1060;52.492;13.388;2023-07-29T04:57:29;7.60;;;6.93;;
2107;SDS011;1060;52.492;13.388;2023-07-29T05:06:36;7.03;;;6.53;;
2107;SDS011;1060;52.492;13.388;2023-07-29T05:12:32;5.00;;;4.70;;
2107;SDS011;1060;52.492;13.388;2023-07-29T05:18:29;6.37;;;5.97;;
2107;SDS011;1060;52.492;13.388;2023-07-29T05:21:31;6.80;;;5.30;;
2107;SDS011;1060;52.492;13.388;2023-07-29T05:24:01;6.10;;;5.70;;
2107;SDS011;1060;52.492;13.388;2023-07-29T05:52:47;8.70;;;8.10;;
2107;SDS011;1060;52.492;13.388;2023-07-29T05:59:37;6.83;;;6.07;;
2107;SDS011;1060;52.492;13.388;2023-07-29T06:12:58;4.67;;;4.37;;
2107;SDS011;1060;52.492;13.388;2023-07-29T06:36:54;6.47;;;5.87;;
2107;SDS011;1060;52.492;13.388;2023-07-29T06:42:25;8.40;;;7.60;;
2107;SDS011;1060;52.492;13.388;2023-07-29T06:45:04;6.60;;;5.97;;
2107;SDS011;1060;52.492;13.388;2023-07-29T06:47:32;5.13;;;4.73;;
2107;SDS011;1060;52.492;13.388;2023-07-29T06:50:07;9.40;;;5.60;;
2107;SDS011;1060;52.492;13.388;2023-07-29T06:53:07;7.10;;;4.37;;
2107;SDS011;1060;52.492;13.388;2023-07-29T06:55:33;6.83;;;6.33;;
2107;SDS011;1060;52.492;13.388;2023-07-29T06:58:03;6.80;;;4.80;;
2107;SDS011;1060;52.492;13.388;2023-07-29T07:06:21;4.77;;;4.30;;
2107;SDS011;1060;52.492;13.388;2023-07-29T07:09:04;4.80;;;4.40;;
2107;SDS011;1060;52.492;13.388;2023-07-29T07:15:33;5.67;;;5.27;;
2107;SDS011;1060;52.492;13.388;2023-07-29T07:18:00;6.90;;;6.40;;
2107;SDS011;1060;52.492;13.388;2023-07-29T07:20:54;7.23;;;6.63;;
2107;SDS011;1060;52.492;13.388;2023-07-29T07:23:42;7.10;;;4.80;;
2107;SDS011;1060;52.492;13.388;2023-07-29T07:27:18;4.00;;;3.70;;
2107;SDS011;1060;52.492;13.388;2023-07-29T07:44:13;5.43;;;4.93;;
2107;SDS011;1060;52.492;13.388;2023-07-29T07:47:26;5.00;;;4.70;;
2107;SDS011;1060;52.492;13.388;2023-07-29T07:53:16;4.50;;;4.20;;
2107;SDS011;1060;52.492;13.388;2023-07-29T07:56:49;6.40;;;5.90;;
2107;SDS011;1060;52.492;13.388;2023-07-29T07:59:11;7.73;;;7.17;;
2107;SDS011;1060;52.492;13.388;2023-07-29T08:02:19;4.60;;;4.30;;
2107;SDS011;1060;52.492;13.388;2023-07-29T08:05:08;6.10;;;5.53;;
2107;SDS011;1060;52.492;13.388;2023-07-29T08:07:34;7.20;;;6.63;;
2107;SDS011;1060;52.492;13.388;2023-07-29T08:10:01;5.10;;;4.80;;
2107;SDS011;1060;52.492;13.388;2023-07-29T08:12:32;4.50;;;4.17;;
2107;SDS011;1060;52.492;13.388;2023-07-29T08:14:59;4.40;;;4.00;;
2107;SDS011;1060;52.492;13.388;2023-07-29T08:17:25;5.03;;;4.73;;
2107;SDS011;1060;52.492;13.388;2023-07-29T08:20:00;7.30;;;5.03;;
2107;SDS011;1060;52.492;13.388;2023-07-29T08:22:44;34.10;;;9.73;;
2107;SDS011;1060;52.492;13.388;2023-07-29T08:25:24;4.97;;;4.40;;
2107;SDS011;1060;52.492;13.388;2023-07-29T08:27:56;6.63;;;4.30;;
2107;SDS011;1060;52.492;13.388;2023-07-29T08:30:22;7.43;;;4.20;;
2107;SDS011;1060;52.492;13.388;2023-07-29T08:33:11;14.90;;;8.20;;
2107;SDS011;1060;52.492;13.388;2023-07-29T08:35:38;3.97;;;3.60;;
2107;SDS011;1060;52.492;13.388;2023-07-29T08:38:04;4.00;;;3.70;;
2107;SDS011;1060;52.492;13.388;2023-07-29T08:40:30;27.97;;;9.63;;
2107;SDS011;1060;52.492;13.388;2023-07-29T08:43:02;10.67;;;8.43;;
2107;SDS011;1060;52.492;13.388;2023-07-29T08:45:34;7.17;;;6.57;;
2107;SDS011;1060;52.492;13.388;2023-07-29T08:48:06;7.07;;;6.47;;
2107;SDS011;1060;52.492;13.388;2023-07-29T08:50:35;22.23;;;9.57;;
2107;SDS011;1060;52.492;13.388;2023-07-29T08:53:05;7.30;;;4.57;;
2107;SDS011;1060;52.492;13.388;2023-07-29T08:55:37;7.00;;;6.50;;
2107;SDS011;1060;52.492;13.388;2023-07-29T08:58:03;8.27;;;7.43;;
2107;SDS011;1060;52.492;13.388;2023-07-29T09:00:30;10.07;;;9.17;;
2107;SDS011;1060;52.492;13.388;2023-07-29T09:03:04;5.97;;;5.40;;
2107;SDS011;1060;52.492;13.388;2023-07-29T09:05:37;4.20;;;3.80;;
2107;SDS011;1060;52.492;13.388;2023-07-29T09:08:03;13.23;;;7.00;;
2107;SDS011;1060;52.492;13.388;2023-07-29T09:10:30;7.13;;;3.73;;
2107;SDS011;1060;52.492;13.388;2023-07-29T09:13:03;10.47;;;5.40;;
2107;SDS011;1060;52.492;13.388;2023-07-29T09:15:48;3.80;;;2.90;;
2107;SDS011;1060;52.492;13.388;2023-07-29T09:18:27;4.47;;;4.13;;
2107;SDS011;1060;52.492;13.388;2023-07-29T09:24:08;14.73;;;6.20;;
2107;SDS011;1060;52.492;13.388;2023-07-29T09:26:37;3.90;;;3.60;;
2107;SDS011;1060;52.492;13.388;2023-07-29T09:29:15;4.93;;;4.63;;
2107;SDS011;1060;52.492;13.388;2023-07-29T09:31:49;3.90;;;3.60;;
2107;SDS011;1060;52.492;13.388;2023-07-29T09:34:18;3.83;;;3.53;;
2107;SDS011;1060;52.492;13.388;2023-07-29T09:36:50;5.10;;;4.80;;
2107;SDS011;1060;52.492;13.388;2023-07-29T09:42:37;5.60;;;3.60;;
2107;SDS011;1060;52.492;13.388;2023-07-29T09:45:06;4.20;;;3.90;;
2107;SDS011;1060;52.492;13.388;2023-07-29T09:47:35;4.90;;;4.40;;
2107;SDS011;1060;52.492;13.388;2023-07-29T09:52:54;3.23;;;2.80;;
2107;SDS011;1060;52.492;13.388;2023-07-29T09:55:32;11.77;;;3.90;;
2107;SDS011;1060;52.492;13.388;2023-07-29T09:58:04;6.67;;;4.23;;
2107;SDS011;1060;52.492;13.388;2023-07-29T10:00:46;4.03;;;3.73;;
2107;SDS011;1060;52.492;13.388;2023-07-29T10:03:16;8.17;;;5.80;;
2107;SDS011;1060;52.492;13.388;2023-07-29T10:05:43;13.43;;;5.00;;
2107;SDS011;1060;52.492;13.388;2023-07-29T10:08:16;6.37;;;3.67;;
2107;SDS011;1060;52.492;13.388;2023-07-29T10:11:26;6.60;;;5.97;;
2107;SDS011;1060;52.492;13.388;2023-07-29T10:14:06;6.60;;;4.00;;
2107;SDS011;1060;52.492;13.388;2023-07-29T10:16:54;4.37;;;4.00;;
2107;SDS011;1060;52.492;13.388;2023-07-29T10:19:43;6.60;;;4.60;;
2107;SDS011;1060;52.492;13.388;2023-07-29T10:22:29;4.07;;;3.50;;
2107;SDS011;1060;52.492;13.388;2023-07-29T10:28:33;3.50;;;2.60;;
2107;SDS011;1060;52.492;13.388;2023-07-29T10:31:16;3.30;;;3.00;;
2107;SDS011;1060;52.492;13.388;2023-07-29T10:33:46;3.47;;;3.17;;
2107;SDS011;1060;52.492;13.388;2023-07-29T10:36:12;2.60;;;2.40;;
2107;SDS011;1060;52.492;13.388;2023-07-29T10:38:39;9.07;;;4.53;;
2107;SDS011;1060;52.492;13.388;2023-07-29T10:44:07;20.93;;;6.83;;
2107;SDS011;1060;52.492;13.388;2023-07-29T10:47:27;3.00;;;2.67;;
2107;SDS011;1060;52.492;13.388;2023-07-29T10:50:44;3.73;;;3.40;;
2107;SDS011;1060;52.492;13.388;2023-07-29T10:53:42;2.80;;;2.20;;
2107;SDS011;1060;52.492;13.388;2023-07-29T10:56:30;7.50;;;4.33;;
2107;SDS011;1060;52.492;13.388;2023-07-29T11:08:26;4.13;;;3.73;;
2107;SDS011;1060;52.492;13.388;2023-07-29T11:11:01;5.43;;;4.20;;
2107;SDS011;1060;52.492;13.388;2023-07-29T11:13:29;10.00;;;7.63;;
2107;SDS011;1060;52.492;13.388;2023-07-29T11:15:55;6.00;;;3.90;;
2107;SDS011;1060;52.492;13.388;2023-07-29T11:18:25;23.57;;;5.33;;
2107;SDS011;1060;52.492;13.388;2023-07-29T11:20:55;0.70;;;0.50;;
2107;SDS011;1060;52.492;13.388;2023-07-29T11:23:27;7.93;;;5.50;;
2107;SDS011;1060;52.492;13.388;2023-07-29T11:25:54;11.17;;;6.70;;
2107;SDS011;1060;52.492;13.388;2023-07-29T11:28:21;8.57;;;6.30;;
2107;SDS011;1060;52.492;13.388;2023-07-29T11:30:49;9.17;;;6.67;;
2107;SDS011;1060;52.492;13.388;2023-07-29T11:33:17;8.07;;;7.33;;
2107;SDS011;1060;52.492;13.388;2023-07-29T11:35:44;8.77;;;6.70;;
2107;SDS011;1060;52.492;13.388;2023-07-29T11:38:14;11.87;;;10.60;;
2107;SDS011;1060;52.492;13.388;2023-07-29T11:40:43;4.80;;;3.17;;
2107;SDS011;1060;52.492;13.388;2023-07-29T11:43:09;6.20;;;5.70;;
2107;SDS011;1060;52.492;13.388;2023-07-29T11:45:44;8.00;;;7.10;;
2107;SDS011;1060;52.492;13.388;2023-07-29T11:48:10;6.70;;;5.97;;
2107;SDS011;1060;52.492;13.388;2023-07-29T11:50:39;7.17;;;5.10;;
2107;SDS011;1060;52.492;13.388;2023-07-29T11:53:05;28.20;;;15.17;;
2107;SDS011;1060;52.492;13.388;2023-07-29T11:55:31;4.60;;;4.30;;
2107;SDS011;1060;52.492;13.388;2023-07-29T11:58:00;3.00;;;2.70;;
2107;SDS011;1060;52.492;13.388;2023-07-29T12:00:28;16.00;;;11.47;;
2107;SDS011;1060;52.492;13.388;2023-07-29T12:02:56;4.87;;;3.50;;
2107;SDS011;1060;52.492;13.388;2023-07-29T12:05:26;4.10;;;3.80;;
2107;SDS011;1060;52.492;13.388;2023-07-29T12:07:55;5.13;;;4.63;;
2107;SDS011;1060;52.492;13.388;2023-07-29T12:10:22;10.80;;;9.80;;
2107;SDS011;1060;52.492;13.388;2023-07-29T12:12:48;2.53;;;2.23;;
2107;SDS011;1060;52.492;13.388;2023-07-29T12:15:28;3.80;;;3.37;;
2107;SDS011;1060;52.492;13.388;2023-07-29T12:17:55;2.43;;;2.10;;
2107;SDS011;1060;52.492;13.388;2023-07-29T12:20:21;4.97;;;3.20;;
2107;SDS011;1060;52.492;13.388;2023-07-29T12:22:52;8.10;;;7.30;;
2107;SDS011;1060;52.492;13.388;2023-07-29T12:25:18;3.70;;;3.30;;
2107;SDS011;1060;52.492;13.388;2023-07-29T12:27:54;6.80;;;3.50;;
2107;SDS011;1060;52.492;13.388;2023-07-29T12:30:21;7.10;;;5.13;;
2107;SDS011;1060;52.492;13.388;2023-07-29T12:32:47;3.53;;;3.23;;
2107;SDS011;1060;52.492;13.388;2023-07-29T12:35:16;4.83;;;4.47;;
2107;SDS011;1060;52.492;13.388;2023-07-29T12:37:45;6.00;;;5.40;;
2107;SDS011;1060;52.492;13.388;2023-07-29T12:40:21;5.30;;;4.70;;
2107;SDS011;1060;52.492;13.388;2023-07-29T12:42:48;7.60;;;4.67;;
2107;SDS011;1060;52.492;13.388;2023-07-29T12:45:15;2.77;;;2.57;;
2107;SDS011;1060;52.492;13.388;2023-07-29T12:47:44;8.93;;;8.13;;
2107;SDS011;1060;52.492;13.388;2023-07-29T12:50:13;9.87;;;4.60;;
2107;SDS011;1060;52.492;13.388;2023-07-29T12:52:39;9.27;;;8.37;;
2107;SDS011;1060;52.492;13.388;2023-07-29T12:55:06;6.77;;;5.93;;
2107;SDS011;1060;52.492;13.388;2023-07-29T12:57:34;13.93;;;5.20;;
2107;SDS011;1060;52.492;13.388;2023-07-29T13:00:01;3.03;;;2.80;;
2107;SDS011;1060;52.492;13.388;2023-07-29T13:02:29;3.60;;;2.80;;
2107;SDS011;1060;52.492;13.388;2023-07-29T13:05:00;3.57;;;2.73;;
2107;SDS011;1060;52.492;13.388;2023-07-29T13:07:27;3.07;;;2.77;;
2107;SDS011;1060;52.492;13.388;2023-07-29T13:09:53;2.83;;;2.53;;
2107;SDS011;1060;52.492;13.388;2023-07-29T13:12:20;4.63;;;3.53;;
2107;SDS011;1060;52.492;13.388;2023-07-29T13:14:46;5.77;;;4.37;;
2107;SDS011;1060;52.492;13.388;2023-07-29T13:17:12;4.10;;;3.80;;
2107;SDS011;1060;52.492;13.388;2023-07-29T13:19:39;2.73;;;2.40;;
2107;SDS011;1060;52.492;13.388;2023-07-29T13:22:08;3.10;;;2.90;;
2107;SDS011;1060;52.492;13.388;2023-07-29T13:24:40;4.67;;;4.27;;
2107;SDS011;1060;52.492;13.388;2023-07-29T13:27:09;6.03;;;4.63;;
2107;SDS011;1060;52.492;13.388;2023-07-29T13:29:35;4.77;;;4.37;;
2107;SDS011;1060;52.492;13.388;2023-07-29T13:32:01;3.67;;;3.37;;
2107;SDS011;1060;52.492;13.388;2023-07-29T13:34:27;4.27;;;3.97;;
2107;SDS011;1060;52.492;13.388;2023-07-29T13:36:54;2.90;;;2.70;;
2107;SDS011;1060;52.492;13.388;2023-07-29T13:39:20;6.80;;;6.30;;
2107;SDS011;1060;52.492;13.388;2023-07-29T13:41:46;2.50;;;2.30;;
2107;SDS011;1060;52.492;13.388;2023-07-29T13:44:12;3.57;;;3.27;;
2107;SDS011;1060;52.492;13.388;2023-07-29T13:46:38;2.33;;;2.10;;
2107;SDS011;1060;52.492;13.388;2023-07-29T13:49:04;3.00;;;2.80;;
2107;SDS011;1060;52.492;13.388;2023-07-29T13:51:31;8.47;;;7.73;;
2107;SDS011;1060;52.492;13.388;2023-07-29T13:53:57;2.87;;;2.67;;
2107;SDS011;1060;52.492;13.388;2023-07-29T13:56:23;6.70;;;6.10;;
2107;SDS011;1060;52.492;13.388;2023-07-29T13:58:50;2.40;;;2.20;;
2107;SDS011;1060;52.492;13.388;2023-07-29T14:01:19;3.17;;;2.93;;
2107;SDS011;1060;52.492;13.388;2023-07-29T14:03:49;4.83;;;4.37;;
2107;SDS011;1060;52.492;13.388;2023-07-29T14:06:22;5.30;;;4.70;;
2107;SDS011;1060;52.492;13.388;2023-07-29T14:08:51;2.60;;;2.40;;
2107;SDS011;1060;52.492;13.388;2023-07-29T14:11:24;2.50;;;2.30;;
2107;SDS011;1060;52.492;13.388;2023-07-29T14:17:12;2.10;;;2.00;;
2107;SDS011;1060;52.492;13.388;2023-07-29T14:19:39;2.23;;;2.03;;
2107;SDS011;1060;52.492;13.388;2023-07-29T14:22:23;2.63;;;2.47;;
2107;SDS011;1060;52.492;13.388;2023-07-29T14:25:02;3.00;;;2.80;;
2107;SDS011;1060;52.492;13.388;2023-07-29T14:27:35;2.30;;;2.10;;
2107;SDS011;1060;52.492;13.388;2023-07-29T14:30:37;4.53;;;4.10;;
2107;SDS011;1060;52.492;13.388;2023-07-29T14:50:20;3.40;;;3.10;;
2107;SDS011;1060;52.492;13.388;2023-07-29T15:09:49;2.87;;;2.67;;
2107;SDS011;1060;52.492;13.388;2023-07-29T15:21:32;1.73;;;1.63;;
2107;SDS011;1060;52.492;13.388;2023-07-29T15:24:06;3.63;;;2.73;;
2107;SDS011;1060;52.492;13.388;2023-07-29T15:26:38;6.03;;;2.30;;
2107;SDS011;1060;52.492;13.388;2023-07-29T15:29:04;2.23;;;2.13;;
2107;SDS011;1060;52.492;13.388;2023-07-29T15:31:33;2.60;;;2.40;;
2107;SDS011;1060;52.492;13.388;2023-07-29T15:33:59;2.20;;;2.00;;
2107;SDS011;1060;52.492;13.388;2023-07-29T15:36:29;3.40;;;3.10;;
2107;SDS011;1060;52.492;13.388;2023-07-29T15:38:55;1.63;;;1.50;;
2107;SDS011;1060;52.492;13.388;2023-07-29T15:41:23;2.73;;;2.37;;
2107;SDS011;1060;52.492;13.388;2023-07-29T15:43:50;2.73;;;2.47;;
2107;SDS011;1060;52.492;13.388;2023-07-29T15:46:16;5.13;;;4.40;;
2107;SDS011;1060;52.492;13.388;2023-07-29T15:48:42;6.03;;;2.97;;
2107;SDS011;1060;52.492;13.388;2023-07-29T15:51:12;2.47;;;2.23;;
2107;SDS011;1060;52.492;13.388;2023-07-29T15:53:38;5.70;;;5.20;;
2107;SDS011;1060;52.492;13.388;2023-07-29T15:56:10;5.67;;;3.07;;
2107;SDS011;1060;52.492;13.388;2023-07-29T15:58:36;2.53;;;2.33;;
2107;SDS011;1060;52.492;13.388;2023-07-29T16:01:03;5.10;;;3.33;;
2107;SDS011;1060;52.492;13.388;2023-07-29T16:03:30;4.73;;;3.93;;
2107;SDS011;1060;52.492;13.388;2023-07-29T16:05:56;4.23;;;3.83;;
2107;SDS011;1060;52.492;13.388;2023-07-29T16:08:22;3.63;;;3.33;;
2107;SDS011;1060;52.492;13.388;2023-07-29T16:10:50;5.83;;;3.80;;
2107;SDS011;1060;52.492;13.388;2023-07-29T16:13:16;6.97;;;6.10;;
2107;SDS011;1060;52.492;13.388;2023-07-29T16:15:44;8.23;;;5.93;;
2107;SDS011;1060;52.492;13.388;2023-07-29T16:18:11;4.97;;;4.50;;
2107;SDS011;1060;52.492;13.388;2023-07-29T16:20:37;5.67;;;3.87;;
2107;SDS011;1060;52.492;13.388;2023-07-29T16:23:12;9.60;;;7.83;;
2107;SDS011;1060;52.492;13.388;2023-07-29T16:25:41;6.53;;;6.03;;
2107;SDS011;1060;52.492;13.388;2023-07-29T16:28:11;10.60;;;9.63;;
2107;SDS011;1060;52.492;13.388;2023-07-29T16:30:40;6.83;;;6.33;;
2107;SDS011;1060;52.492;13.388;2023-07-29T16:33:09;5.87;;;5.30;;
2107;SDS011;1060;52.492;13.388;2023-07-29T16:35:49;5.40;;;4.93;;
2107;SDS011;1060;52.492;13.388;2023-07-29T16:38:35;4.23;;;3.87;;
2107;SDS011;1060;52.492;13.388;2023-07-29T16:41:01;7.27;;;6.67;;
2107;SDS011;1060;52.492;13.388;2023-07-29T16:43:30;6.10;;;5.07;;
2107;SDS011;1060;52.492;13.388;2023-07-29T16:45:56;8.20;;;7.50;;
2107;SDS011;1060;52.492;13.388;2023-07-29T16:48:31;7.93;;;7.23;;
2107;SDS011;1060;52.492;13.388;2023-07-29T16:51:00;15.83;;;14.73;;
2107;SDS011;1060;52.492;13.388;2023-07-29T16:53:27;5.90;;;5.40;;
2107;SDS011;1060;52.492;13.388;2023-07-29T16:55:53;7.90;;;7.20;;
2107;SDS011;1060;52.492;13.388;2023-07-29T17:01:29;8.20;;;6.00;;
2107;SDS011;1060;52.492;13.388;2023-07-29T17:03:55;7.77;;;7.10;;
2107;SDS011;1060;52.492;13.388;2023-07-29T17:06:21;16.13;;;14.50;;
2107;SDS011;1060;52.492;13.388;2023-07-29T17:08:48;9.30;;;8.50;;
2107;SDS011;1060;52.492;13.388;2023-07-29T17:11:17;7.90;;;7.30;;
2107;SDS011;1060;52.492;13.388;2023-07-29T17:13:43;16.93;;;15.53;;
2107;SDS011;1060;52.492;13.388;2023-07-29T17:16:10;7.10;;;6.40;;
2107;SDS011;1060;52.492;13.388;2023-07-29T17:18:37;7.50;;;6.47;;
2107;SDS011;1060;52.492;13.388;2023-07-29T17:21:04;4.27;;;3.90;;
2107;SDS011;1060;52.492;13.388;2023-07-29T17:23:30;10.90;;;9.77;;
2107;SDS011;1060;52.492;13.388;2023-07-29T17:25:57;4.60;;;3.93;;
2107;SDS011;1060;52.492;13.388;2023-07-29T17:28:27;6.67;;;6.27;;
2107;SDS011;1060;52.492;13.388;2023-07-29T17:30:53;6.20;;;5.60;;
2107;SDS011;1060;52.492;13.388;2023-07-29T17:33:19;4.70;;;4.30;;
2107;SDS011;1060;52.492;13.388;2023-07-29T17:35:48;10.57;;;7.07;;
2107;SDS011;1060;52.492;13.388;2023-07-29T17:38:20;6.53;;;4.90;;
2107;SDS011;1060;52.492;13.388;2023-07-29T17:40:49;5.77;;;4.60;;
2107;SDS011;1060;52.492;13.388;2023-07-29T17:43:21;6.90;;;6.30;;
2107;SDS011;1060;52.492;13.388;2023-07-29T17:45:47;3.80;;;3.50;;
2107;SDS011;1060;52.492;13.388;2023-07-29T17:48:16;5.27;;;4.60;;
2107;SDS011;1060;52.492;13.388;2023-07-29T17:50:43;7.37;;;6.67;;
2107;SDS011;1060;52.492;13.388;2023-07-29T17:53:10;8.03;;;6.90;;
2107;SDS011;1060;52.492;13.388;2023-07-29T17:55:39;6.80;;;5.80;;
2107;SDS011;1060;52.492;13.388;2023-07-29T17:58:08;6.20;;;5.63;;
2107;SDS011;1060;52.492;13.388;2023-07-29T18:00:34;5.37;;;4.87;;
2107;SDS011;1060;52.492;13.388;2023-07-29T18:03:02;7.20;;;5.47;;
2107;SDS011;1060;52.492;13.388;2023-07-29T18:05:28;4.80;;;4.47;;
2107;SDS011;1060;52.492;13.388;2023-07-29T18:07:55;6.27;;;5.73;;
2107;SDS011;1060;52.492;13.388;2023-07-29T18:10:21;4.70;;;4.37;;
2107;SDS011;1060;52.492;13.388;2023-07-29T18:12:49;4.97;;;4.67;;
2107;SDS011;1060;52.492;13.388;2023-07-29T18:15:15;5.03;;;4.63;;
2107;SDS011;1060;52.492;13.388;2023-07-29T18:17:42;6.43;;;5.60;;
2107;SDS011;1060;52.492;13.388;2023-07-29T18:20:08;5.70;;;5.20;;
2107;SDS011;1060;52.492;13.388;2023-07-29T18:22:35;5.87;;;5.30;;
2107;SDS011;1060;52.492;13.388;2023-07-29T18:25:05;4.90;;;4.40;;
2107;SDS011;1060;52.492;13.388;2023-07-29T18:27:35;5.83;;;4.87;;
2107;SDS011;1060;52.492;13.388;2023-07-29T18:30:02;4.47;;;4.17;;
2107;SDS011;1060;52.492;13.388;2023-07-29T18:32:31;4.63;;;4.23;;
2107;SDS011;1060;52.492;13.388;2023-07-29T18:34:58;3.47;;;3.27;;
2107;SDS011;1060;52.492;13.388;2023-07-29T18:37:24;6.67;;;6.07;;
2107;SDS011;1060;52.492;13.388;2023-07-29T18:39:52;5.70;;;5.27;;
2107;SDS011;1060;52.492;13.388;2023-07-29T18:42:19;5.23;;;4.73;;
2107;SDS011;1060;52.492;13.388;2023-07-29T18:44:45;4.57;;;4.20;;
2107;SDS011;1060;52.492;13.388;2023-07-29T18:47:11;8.10;;;6.50;;
2107;SDS011;1060;52.492;13.388;2023-07-29T18:49:37;5.33;;;4.80;;
2107;SDS011;1060;52.492;13.388;2023-07-29T18:52:04;8.00;;;4.67;;
2107;SDS011;1060;52.492;13.388;2023-07-29T18:54:33;5.63;;;5.13;;
2107;SDS011;1060;52.492;13.388;2023-07-29T18:57:02;6.07;;;5.40;;
2107;SDS011;1060;52.492;13.388;2023-07-29T18:59:31;6.17;;;5.57;;
2107;SDS011;1060;52.492;13.388;2023-07-29T19:01:57;6.00;;;5.40;;
2107;SDS011;1060;52.492;13.388;2023-07-29T19:04:23;6.03;;;5.47;;
2107;SDS011;1060;52.492;13.388;2023-07-29T19:06:52;8.33;;;6.73;;
2107;SDS011;1060;52.492;13.388;2023-07-29T19:09:23;5.90;;;5.40;;
2107;SDS011;1060;52.492;13.388;2023-07-29T19:11:53;6.37;;;5.87;;
2107;SDS011;1060;52.492;13.388;2023-07-29T19:14:20;5.50;;;5.00;;
2107;SDS011;1060;52.492;13.388;2023-07-29T19:16:46;7.43;;;6.63;;
2107;SDS011;1060;52.492;13.388;2023-07-29T19:19:13;8.40;;;7.07;;
2107;SDS011;1060;52.492;13.388;2023-07-29T19:21:39;6.80;;;6.20;;
2107;SDS011;1060;52.492;13.388;2023-07-29T19:24:06;5.80;;;5.30;;
2107;SDS011;1060;52.492;13.388;2023-07-29T19:26:32;5.73;;;5.30;;
2107;SDS011;1060;52.492;13.388;2023-07-29T19:28:58;7.00;;;6.50;;
2107;SDS011;1060;52.492;13.388;2023-07-29T19:31:24;6.10;;;5.60;;
2107;SDS011;1060;52.492;13.388;2023-07-29T19:33:51;5.67;;;5.20;;
2107;SDS011;1060;52.492;13.388;2023-07-29T19:36:17;9.20;;;6.67;;
2107;SDS011;1060;52.492;13.388;2023-07-29T19:38:46;9.37;;;8.57;;
2107;SDS011;1060;52.492;13.388;2023-07-29T19:41:13;9.70;;;8.87;;
2107;SDS011;1060;52.492;13.388;2023-07-29T19:43:39;12.20;;;11.10;;
2107;SDS011;1060;52.492;13.388;2023-07-29T19:46:05;8.57;;;7.87;;
2107;SDS011;1060;52.492;13.388;2023-07-29T19:48:32;8.87;;;5.90;;
2107;SDS011;1060;52.492;13.388;2023-07-29T19:50:59;8.40;;;7.67;;
2107;SDS011;1060;52.492;13.388;2023-07-29T19:53:25;7.83;;;7.03;;
2107;SDS011;1060;52.492;13.388;2023-07-29T19:55:51;7.23;;;6.47;;
2107;SDS011;1060;52.492;13.388;2023-07-29T19:58:18;9.93;;;8.90;;
2107;SDS011;1060;52.492;13.388;2023-07-29T20:00:50;7.00;;;6.33;;
2107;SDS011;1060;52.492;13.388;2023-07-29T20:03:17;7.53;;;6.93;;
2107;SDS011;1060;52.492;13.388;2023-07-29T20:05:44;7.70;;;7.00;;
2107;SDS011;1060;52.492;13.388;2023-07-29T20:08:13;8.40;;;7.60;;
2107;SDS011;1060;52.492;13.388;2023-07-29T20:10:39;8.03;;;6.67;;
2107;SDS011;1060;52.492;13.388;2023-07-29T20:13:05;12.00;;;10.90;;
2107;SDS011;1060;52.492;13.388;2023-07-29T20:15:34;12.67;;;11.67;;
2107;SDS011;1060;52.492;13.388;2023-07-29T20:18:00;14.33;;;13.03;;
2107;SDS011;1060;52.492;13.388;2023-07-29T20:20:27;15.10;;;13.60;;
2107;SDS011;1060;52.492;13.388;2023-07-29T20:22:53;17.53;;;16.13;;
2107;SDS011;1060;52.492;13.388;2023-07-29T20:25:22;9.37;;;8.43;;
2107;SDS011;1060;52.492;13.388;2023-07-29T20:27:48;11.47;;;10.30;;
2107;SDS011;1060;52.492;13.388;2023-07-29T20:30:14;15.73;;;14.27;;
2107;SDS011;1060;52.492;13.388;2023-07-29T20:32:41;11.73;;;10.73;;
2107;SDS011;1060;52.492;13.388;2023-07-29T20:35:07;17.20;;;15.60;;
2107;SDS011;1060;52.492;13.388;2023-07-29T20:37:33;13.57;;;12.43;;
2107;SDS011;1060;52.492;13.388;2023-07-29T20:39:59;11.17;;;10.07;;
2107;SDS011;1060;52.492;13.388;2023-07-29T20:42:28;15.90;;;14.50;;
2107;SDS011;1060;52.492;13.388;2023-07-29T20:44:54;8.17;;;7.40;;
2107;SDS011;1060;52.492;13.388;2023-07-29T20:47:20;8.17;;;7.37;;
2107;SDS011;1060;52.492;13.388;2023-07-29T20:49:47;9.87;;;9.07;;
2107;SDS011;1060;52.492;13.388;2023-07-29T20:52:13;11.90;;;10.90;;
2107;SDS011;1060;52.492;13.388;2023-07-29T20:54:39;13.40;;;11.63;;
2107;SDS011;1060;52.492;13.388;2023-07-29T20:57:06;10.43;;;9.43;;
2107;SDS011;1060;52.492;13.388;2023-07-29T20:59:32;10.03;;;9.23;;
2107;SDS011;1060;52.492;13.388;2023-07-29T21:02:02;16.63;;;15.00;;
2107;SDS011;1060;52.492;13.388;2023-07-29T21:04:31;24.27;;;21.87;;
2107;SDS011;1060;52.492;13.388;2023-07-29T21:06:58;31.77;;;28.97;;
2107;SDS011;1060;52.492;13.388;2023-07-29T21:09:24;11.63;;;8.70;;
2107;SDS011;1060;52.492;13.388;2023-07-29T21:11:51;14.93;;;13.67;;